Forside
METAR-TAF:

METAR-TAF

Lufthavne :

Damaskus, Syrien

Breddekreds: 33-25N, længdekreds: 036-31E, højde: 608 m

Aktuelle vejr

Denne rapport blev lavet for 31 minutter siden, kl. 01:00 UTC
Vind 6 kt fra øst
Temperatur 7°C
Fugtighed 87%
Tryk 1021 hPa
Sigt 10 km eller mere
Spredte skyer i en højde af 3000 ft

METAR: OSDI 240100Z 09006KT 9999 SCT030 07/05 Q1021

Tid: 03:31 (01:31 UTC)

Vejrudsigter

Foreløbig gælder fra 24 på 00 UTC til 25 på 06 UTC
Vind 3 kt fra varierende retninger
Sigt: 8000 m
Sandsynlighed 30% :
Midlertidig
fra 24 på 00 UTC til 24 på 07 UTC
Sigt: 3000 m
dis
ændring
fra 24 på 07 UTC til 24 på 09 UTC
Vind 10 kt fra østnordøst
Sigt 10 km eller mere
Nogle få skyer i en højde af 3000 ft

TAF: OSDI 2400/2506 VRB03KT 8000 PROB30 TEMPO 2400/2407 3000 BR BECMG 2407/2409 06010KT 9999 FEW030

Vejrobservationer og prognoser fra mere end 4000 lufthavne (METAR og TAF).

De gule og røde prikker repræsenterer de meteorologiske stationer.

Flyt musen over at se navnet på stationen.

Så klik over at se vejr observationer og prognoser.

At skifte det kort: Klik på de grønne knapper med et sort kors for at zoome ind; på den grønne knap med en bindestreg for at zoome ud; eller på de grønne pile for tilstødende kort.


METAR-TAF: